Time;durP1;ratioP1;P1;durP2;ratioP2;P2;SDS_P1;SDS_P2;PMS_P1;PMS_P2;Temp;Humidity;BMP_temperature;BMP_pressure;BME280_temperature;BME280_humidity;BME280_pressure;Samples;Min_cycle;Max_cycle;Signal;HPM_P1;HPM_P2
2022/08/01 00:00:47;;;;;;;1999.90;999.90;;;;;;;18.71;71.88;99371.78;10026788;23;19921;-77
2022/08/01 00:04:48;;;;;;;1999.90;999.90;;;;;;;18.64;71.93;99373.75;9982758;23;20033;-78
2022/08/01 00:08:50;;;;;;;1999.90;999.90;;;;;;;18.59;72.09;99372.19;10005891;23;20034;-77
2022/08/01 00:12:51;;;;;;;1999.90;999.90;;;;;;;18.51;72.52;99377.75;10031166;23;20030;-77
2022/08/01 00:16:53;;;;;;;1999.90;999.90;;;;;;;18.36;73.32;99386.19;10034951;23;20027;-78
2022/08/01 00:20:54;;;;;;;1999.90;999.90;;;;;;;18.31;73.43;99385.47;10005349;23;20026;-78
2022/08/01 00:24:56;;;;;;;1999.90;999.90;;;;;;;18.26;73.50;99385.66;10004799;23;20022;-77
2022/08/01 00:28:57;;;;;;;1999.90;999.90;;;;;;;18.24;73.75;99392.72;10005591;23;20583;-77
2022/08/01 00:32:59;;;;;;;1999.90;999.90;;;;;;;18.17;73.95;99400.91;10031652;23;20039;-78
2022/08/01 00:37:00;;;;;;;1999.90;999.90;;;;;;;18.18;74.15;99387.72;10030931;23;20407;-78
2022/08/01 00:41:02;;;;;;;1999.90;999.90;;;;;;;18.12;75.03;99391.38;10006410;23;20039;-77
2022/08/01 00:45:04;;;;;;;1999.90;999.90;;;;;;;18.04;74.70;99385.56;10005860;23;20033;-77
2022/08/01 00:49:06;;;;;;;1999.90;999.90;;;;;;;17.93;75.55;99384.19;10005019;23;20438;-78
2022/08/01 00:53:11;;;;;;;1999.90;999.90;;;;;;;17.82;75.74;99371.44;10031041;23;20926;-78
2022/08/01 00:57:19;;;;;;;1999.90;999.90;;;;;;;17.76;76.19;99369.00;10030022;23;20019;-77
2022/08/01 01:01:41;;;;;;;1999.90;999.90;;;;;;;17.78;75.98;99367.22;10026834;23;20031;-77
2022/08/01 01:06:12;;;;;;;1999.90;999.90;;;;;;;17.76;76.61;99366.38;10006155;23;20081;-78
2022/08/01 01:10:47;;;;;;;1999.90;999.90;;;;;;;17.74;76.37;99352.44;10029159;23;20055;-77
2022/08/01 01:15:15;;;;;;;1999.90;999.90;;;;;;;17.63;76.65;99362.44;10004342;23;20048;-78
2022/08/01 01:19:23;;;;;;;1999.90;999.90;;;;;;;17.54;76.74;99363.59;10004572;23;20019;-77
2022/08/01 01:23:54;;;;;;;1999.90;999.90;;;;;;;17.53;76.82;99370.63;10030190;23;20753;-78
2022/08/01 01:28:08;;;;;;;1999.90;999.90;;;;;;;17.52;77.42;99373.28;10030220;23;20057;-78
2022/08/01 01:32:14;;;;;;;1999.90;999.90;;;;;;;17.51;76.92;99374.19;10002274;23;20022;-77
2022/08/01 01:36:19;;;;;;;1999.90;999.90;;;;;;;17.46;78.00;99371.75;10033365;23;20573;-77
2022/08/01 01:40:23;;;;;;;1999.90;999.90;;;;;;;17.44;77.19;99370.06;10032139;23;20072;-78
2022/08/01 01:44:27;;;;;;;1999.90;999.90;;;;;;;17.40;77.34;99371.91;10007166;23;20722;-77
2022/08/01 01:48:29;;;;;;;1999.90;999.90;;;;;;;17.38;77.10;99371.09;10002312;23;20062;-77
2022/08/01 01:52:31;;;;;;;1999.90;999.90;;;;;;;17.35;76.78;99380.84;10046576;23;20018;-77
2022/08/01 01:56:35;;;;;;;1999.90;999.90;;;;;;;17.29;77.36;99376.66;10032730;23;20611;-77
2022/08/01 02:00:37;;;;;;;1999.90;999.90;;;;;;;17.25;77.21;99374.19;10003926;23;20011;-77
2022/08/01 02:04:42;;;;;;;1999.90;999.90;;;;;;;17.27;77.58;99370.63;10038296;23;20057;-77
2022/08/01 02:08:46;;;;;;;1999.90;999.90;;;;;;;17.27;78.17;99377.63;10012192;23;20030;-77
2022/08/01 02:12:50;;;;;;;1999.90;999.90;;;;;;;17.33;78.23;99380.06;10012533;23;20497;-78
2022/08/01 02:16:51;;;;;;;1999.90;999.90;;;;;;;17.34;78.07;99379.13;10032325;23;20385;-77
2022/08/01 02:20:55;;;;;;;1999.90;999.90;;;;;;;17.34;78.66;99373.88;10014091;23;20018;-77
2022/08/01 02:25:09;;;;;;;1999.90;999.90;;;;;;;17.32;78.60;99380.97;10013796;23;20022;-77
2022/08/01 02:29:17;;;;;;;1999.90;999.90;;;;;;;17.22;78.45;99386.47;10052989;23;20034;-77
2022/08/01 02:33:34;;;;;;;1999.90;999.90;;;;;;;17.11;78.72;99390.38;10032576;23;20042;-77
2022/08/01 02:37:38;;;;;;;1999.90;999.90;;;;;;;17.08;79.06;99385.22;10037305;23;20057;-77
2022/08/01 02:41:49;;;;;;;1999.90;999.90;;;;;;;17.00;79.95;99384.59;10028995;23;20026;-77
2022/08/01 02:45:53;;;;;;;1999.90;999.90;;;;;;;16.98;80.34;99371.50;10021490;23;20034;-78
2022/08/01 02:49:56;;;;;;;1999.90;999.90;;;;;;;17.00;80.35;99377.56;10028210;23;20027;-78
2022/08/01 02:53:58;;;;;;;;;;;;;;;17.05;80.49;99380.03;10052724;23;20026;-77
2022/08/01 02:58:01;;;;;;;;;;;;;;;17.06;80.04;99376.53;10037478;23;19921;-77
2022/08/01 03:02:04;;;;;;;;;;;;;;;16.97;80.44;99372.41;10032862;23;19921;-77
2022/08/01 03:06:09;;;;;;;1999.90;999.90;;;;;;;16.97;80.53;99372.41;10033857;23;19921;-77
2022/08/01 03:10:12;;;;;;;1999.90;999.90;;;;;;;16.96;80.48;99380.34;10047665;23;20030;-77
2022/08/01 03:14:15;;;;;;;1999.90;999.90;;;;;;;16.93;80.88;99370.81;10022804;23;20033;-78
2022/08/01 03:18:18;;;;;;;1999.90;999.90;;;;;;;16.96;80.88;99383.81;10027090;23;20027;-77
2022/08/01 03:22:22;;;;;;;1999.90;999.90;;;;;;;16.90;80.98;99374.38;10006645;23;20315;-78
2022/08/01 03:26:28;;;;;;;1999.90;999.90;;;;;;;16.89;81.17;99375.28;10046769;23;20419;-77
2022/08/01 03:30:32;;;;;;;1999.90;999.90;;;;;;;16.73;82.47;99379.28;10002731;23;20062;-77
2022/08/01 03:34:33;;;;;;;1999.90;999.90;;;;;;;16.66;83.19;99379.44;10046787;23;20596;-77
2022/08/01 03:38:38;;;;;;;1999.90;999.90;;;;;;;16.70;83.31;99387.25;10031661;23;20026;-77
2022/08/01 03:42:50;;;;;;;1999.90;999.90;;;;;;;16.74;83.06;99388.00;9982875;23;20019;-78
2022/08/01 03:47:00;;;;;;;1999.90;999.90;;;;;;;16.82;82.73;99386.00;10026379;23;20026;-77
2022/08/01 03:51:03;;;;;;;1999.90;999.90;;;;;;;16.81;83.07;99379.91;10021334;23;20019;-76
2022/08/01 03:55:07;;;;;;;1999.90;999.90;;;;;;;16.81;82.53;99390.38;10005323;23;20026;-77
2022/08/01 03:59:09;;;;;;;1999.90;999.90;;;;;;;16.79;82.48;99383.47;10030362;23;20775;-77
2022/08/01 04:03:12;;;;;;;1999.90;999.90;;;;;;;16.78;82.36;99387.00;10024737;23;20031;-77
2022/08/01 04:07:30;;;;;;;1999.90;999.90;;;;;;;16.76;82.74;99394.06;10029274;23;20037;-77
2022/08/01 04:11:32;;;;;;;1999.90;999.90;;;;;;;16.78;82.65;99392.25;10047362;23;20030;-78
2022/08/01 04:15:34;;;;;;;1999.90;999.90;;;;;;;16.82;83.30;99392.09;10029745;23;20027;-77
2022/08/01 04:19:36;;;;;;;1999.90;999.90;;;;;;;16.86;83.00;99398.97;10023494;23;20033;-78
2022/08/01 04:23:41;;;;;;;1999.90;999.90;;;;;;;16.89;82.50;99401.53;10004894;23;20058;-77
2022/08/01 04:27:46;;;;;;;1999.90;999.90;;;;;;;16.81;82.90;99400.88;10046190;23;20018;-77
2022/08/01 04:31:54;;;;;;;1999.90;999.90;;;;;;;16.81;83.45;99405.25;9977830;23;20038;-77
2022/08/01 04:35:59;;;;;;;1999.90;999.90;;;;;;;16.81;83.79;99400.00;9996368;23;20024;-78
2022/08/01 04:40:07;;;;;;;1999.90;999.90;;;;;;;16.78;84.09;99408.84;10003693;23;20052;-78
2022/08/01 04:44:08;;;;;;;1999.90;999.90;;;;;;;16.78;84.54;99411.47;9997178;23;20031;-78
2022/08/01 04:48:11;;;;;;;1999.90;999.90;;;;;;;16.84;84.67;99413.03;9983213;23;20035;-77
2022/08/01 04:52:12;;;;;;;1999.90;999.90;;;;;;;16.94;84.65;99424.13;10006434;23;20051;-77
2022/08/01 04:56:21;;;;;;;1999.90;999.90;;;;;;;17.12;84.63;99423.56;9983075;23;20027;-77
2022/08/01 05:00:24;;;;;;;1999.90;999.90;;;;;;;17.31;83.74;99419.47;9955594;23;20065;-77
2022/08/01 05:04:25;;;;;;;1999.90;999.90;;;;;;;17.55;83.36;99409.09;9982232;23;20031;-77
2022/08/01 05:08:27;;;;;;;1999.90;999.90;;;;;;;17.81;81.69;99417.00;9984477;23;20023;-77
2022/08/01 05:12:28;;;;;;;1999.90;999.90;;;;;;;18.01;81.00;99417.19;9985527;23;20034;-78
2022/08/01 05:16:33;;;;;;;1999.90;999.90;;;;;;;18.36;79.27;99408.06;9982017;23;20263;-77
2022/08/01 05:20:34;;;;;;;1999.90;999.90;;;;;;;18.75;77.94;99414.59;10024416;23;20058;-78
2022/08/01 05:24:38;;;;;;;1999.90;999.90;;;;;;;19.06;76.66;99417.78;9985483;23;20051;-77
2022/08/01 05:28:42;;;;;;;1999.90;999.90;;;;;;;19.14;76.15;99420.13;9986081;23;20535;-77
2022/08/01 05:32:43;;;;;;;1999.90;999.90;;;;;;;19.15;76.43;99424.47;9987603;23;20031;-76
2022/08/01 05:36:45;;;;;;;1999.90;999.90;;;;;;;19.18;76.13;99419.94;10028001;23;20097;-77
2022/08/01 05:40:47;;;;;;;1999.90;999.90;;;;;;;19.18;76.38;99426.97;10047311;23;20505;-77
2022/08/01 05:44:50;;;;;;;1999.90;999.90;;;;;;;19.21;75.92;99421.56;10004862;23;20050;-77
2022/08/01 05:48:52;;;;;;;1999.90;999.90;;;;;;;19.28;75.71;99429.19;10006952;23;20058;-77
2022/08/01 05:52:54;;;;;;;1999.90;999.90;;;;;;;19.35;75.35;99436.84;10013045;23;20023;-77
2022/08/01 05:56:59;;;;;;;1999.90;999.90;;;;;;;19.37;75.02;99441.13;10012252;23;20042;-78
2022/08/01 06:01:01;;;;;;;1999.90;999.90;;;;;;;19.46;74.74;99442.56;10008086;23;20438;-77
2022/08/01 06:05:03;;;;;;;1999.90;999.90;;;;;;;19.52;75.26;99447.56;10052181;23;20030;-77
2022/08/01 06:09:04;;;;;;;1999.90;999.90;;;;;;;19.53;74.82;99439.59;10009507;23;20450;-77
2022/08/01 06:13:06;;;;;;;1999.90;999.90;;;;;;;19.64;74.95;99447.13;10051604;23;20019;-78
2022/08/01 06:17:07;;;;;;;1999.90;999.90;;;;;;;19.69;74.69;99453.03;10007540;23;20027;-77
2022/08/01 06:21:09;;;;;;;1999.90;999.90;;;;;;;19.76;74.31;99448.41;10037378;23;20026;-78
2022/08/01 06:25:10;;;;;;;1999.90;999.90;;;;;;;19.92;74.09;99452.09;10012386;23;20053;-77
2022/08/01 06:29:12;;;;;;;1999.90;999.90;;;;;;;20.14;73.71;99452.06;9988114;23;20397;-77
2022/08/01 06:33:14;;;;;;;1999.90;999.90;;;;;;;20.38;73.00;99448.38;10002949;23;20038;-77
2022/08/01 06:37:15;;;;;;;1999.90;999.90;;;;;;;21.17;70.90;99456.28;10005703;23;20363;-76
2022/08/01 06:41:17;;;;;;;1999.90;999.90;;;;;;;21.68;67.72;99450.34;10034975;23;20018;-80
2022/08/01 06:45:22;;;;;;;1999.90;999.90;;;;;;;21.85;66.70;99447.72;10006250;23;20229;-77
2022/08/01 06:49:24;;;;;;;1999.90;999.90;;;;;;;21.95;66.16;99450.78;10008775;23;20703;-77
2022/08/01 06:53:25;;;;;;;1999.90;999.90;;;;;;;21.89;65.07;99453.72;10034525;23;20019;-76
2022/08/01 06:57:27;;;;;;;1999.90;999.90;;;;;;;21.95;64.80;99453.44;10007292;23;20027;-76
2022/08/01 07:01:29;;;;;;;1999.90;999.90;;;;;;;22.77;62.67;99454.47;10033589;23;20027;-76
2022/08/01 07:05:35;;;;;;;1999.90;999.90;;;;;;;23.66;59.55;99453.13;10050684;23;20544;-76
2022/08/01 07:09:37;;;;;;;1999.90;999.90;;;;;;;24.29;57.66;99452.16;10011718;23;20480;-77
2022/08/01 07:13:38;;;;;;;;;;;;;;;24.17;57.83;99450.19;9989129;23;20023;-77
2022/08/01 07:17:46;;;;;;;1999.90;999.90;;;;;;;23.99;58.14;99447.69;10010420;23;19921;-77
2022/08/01 07:21:47;;;;;;;1999.90;999.90;;;;;;;24.14;57.62;99450.38;10013073;23;20025;-77
2022/08/01 07:25:52;;;;;;;1999.90;999.90;;;;;;;24.35;55.50;99442.03;10011779;23;20019;-77
2022/08/01 07:29:58;;;;;;;1999.90;999.90;;;;;;;24.46;55.44;99446.69;10012093;23;20057;-77
2022/08/01 07:33:59;;;;;;;1999.90;999.90;;;;;;;24.41;54.88;99446.94;10034042;23;20461;-77
2022/08/01 07:38:01;;;;;;;1999.90;999.90;;;;;;;24.39;55.31;99448.00;10034833;23;20030;-76
2022/08/01 07:42:03;;;;;;;1999.90;999.90;;;;;;;24.36;54.87;99450.84;10006292;23;20459;-76
2022/08/01 07:46:08;;;;;;;1999.90;999.90;;;;;;;24.44;56.05;99450.41;10025700;23;20026;-75
2022/08/01 07:50:12;;;;;;;1999.90;999.90;;;;;;;24.47;53.62;99448.41;10048033;23;20023;-78
2022/08/01 07:54:13;;;;;;;1999.90;999.90;;;;;;;24.37;54.83;99447.22;10051997;23;20062;-77
2022/08/01 07:58:15;;;;;;;;;;;;;;;24.18;54.86;99457.22;10027876;23;20034;-77
2022/08/01 08:02:17;;;;;;;1999.90;999.90;;;;;;;24.13;56.36;99454.84;10036539;23;19926;-77
2022/08/01 08:06:18;;;;;;;;;;;;;;;24.09;56.33;99454.16;10012218;23;20302;-77
2022/08/01 08:10:20;;;;;;;1999.90;999.90;;;;;;;23.99;56.00;99463.59;10036097;23;19948;-77
2022/08/01 08:14:22;;;;;;;1999.90;999.90;;;;;;;23.96;56.67;99455.81;10036374;23;20265;-77
2022/08/01 08:18:33;;;;;;;1999.90;999.90;;;;;;;23.87;56.63;99456.34;10009144;23;20026;-77
2022/08/01 08:22:35;;;;;;;1999.90;999.90;;;;;;;23.81;56.76;99467.31;10011646;23;20018;-77
2022/08/01 08:26:37;;;;;;;1999.90;999.90;;;;;;;23.71;56.80;99460.84;10010478;23;20058;-77
2022/08/01 08:30:40;;;;;;;1999.90;999.90;;;;;;;23.58;57.16;99465.13;10033007;23;20046;-77
2022/08/01 08:34:42;;;;;;;1999.90;999.90;;;;;;;23.51;57.30;99472.50;10051323;23;20023;-77
2022/08/01 08:38:44;;;;;;;1999.90;999.90;;;;;;;23.39;57.83;99473.22;10035223;23;20065;-77
2022/08/01 08:42:47;;;;;;;1999.90;999.90;;;;;;;23.28;58.11;99463.19;10009474;23;20470;-77
2022/08/01 08:46:51;;;;;;;1999.90;999.90;;;;;;;23.31;58.37;99460.38;10031092;23;20026;-77
2022/08/01 08:50:53;;;;;;;1999.90;999.90;;;;;;;23.39;58.42;99459.97;10034308;23;20078;-77
2022/08/01 08:54:56;;;;;;;1999.90;999.90;;;;;;;23.51;57.23;99462.75;10010773;23;20037;-77
2022/08/01 08:58:57;;;;;;;1999.90;999.90;;;;;;;23.70;57.07;99462.63;10033340;23;20037;-77
2022/08/01 09:02:59;;;;;;;;;;;;;;;23.83;56.51;99462.78;10010395;23;20406;-77
2022/08/01 09:07:03;;;;;;;1999.90;999.90;;;;;;;23.97;55.71;99456.69;10007164;23;19961;-77
2022/08/01 09:11:05;;;;;;;1999.90;999.90;;;;;;;24.07;55.16;99460.50;10008485;23;20019;-77
2022/08/01 09:15:07;;;;;;;1999.90;999.90;;;;;;;24.18;54.45;99470.47;9980086;23;20026;-77
2022/08/01 09:19:08;;;;;;;;;;;;;;;24.19;54.75;99456.25;10031338;23;20034;-77
2022/08/01 09:23:42;;;;;;;1999.90;999.90;;;;;;;24.18;54.06;99463.38;10005707;23;19921;-78
2022/08/01 09:28:03;;;;;;;1999.90;999.90;;;;;;;24.33;54.40;99470.47;10029026;23;20019;-76
2022/08/01 09:32:05;;;;;;;1999.90;999.90;;;;;;;24.51;53.19;99470.31;10023463;23;20027;-77
2022/08/01 09:36:08;;;;;;;1999.90;999.90;;;;;;;24.56;53.50;99469.06;10026918;23;20054;-77
2022/08/01 09:40:13;;;;;;;1999.90;999.90;;;;;;;24.82;52.78;99479.91;10002529;23;20033;-77
2022/08/01 09:44:17;;;;;;;1999.90;999.90;;;;;;;25.11;52.99;99476.31;10031561;23;20019;-77
2022/08/01 09:48:54;;;;;;;1999.90;999.90;;;;;;;25.42;51.45;99464.59;10004917;23;20026;-77
2022/08/01 09:52:56;;;;;;;1999.90;999.90;;;;;;;26.04;50.38;99467.66;10007395;23;20026;-77
2022/08/01 09:57:14;;;;;;;1999.90;999.90;;;;;;;26.20;48.67;99472.78;10008969;23;20027;-77
2022/08/01 10:01:16;;;;;;;1999.90;999.90;;;;;;;26.34;48.85;99472.72;10005534;23;20038;-77
2022/08/01 10:05:19;;;;;;;;;;;;;;;26.39;48.58;99477.75;10009934;23;20529;-77
2022/08/01 10:09:34;;;;;;;1999.90;999.90;;;;;;;26.62;48.67;99473.53;9986518;23;19928;-77
2022/08/01 10:13:40;;;;;;;1999.90;999.90;;;;;;;26.54;47.19;99482.03;10045362;23;20019;-75
2022/08/01 10:17:51;;;;;;;1999.90;999.90;;;;;;;26.33;47.91;99475.47;10021025;23;20335;-76
2022/08/01 10:21:58;;;;;;;1999.90;999.90;;;;;;;26.32;48.81;99471.97;10025809;23;20030;-76
2022/08/01 10:26:01;;;;;;;1999.90;999.90;;;;;;;26.45;47.77;99462.22;9999258;23;20089;-75
2022/08/01 10:30:08;;;;;;;1999.90;999.90;;;;;;;26.86;47.49;99454.97;10020002;23;20710;-76
2022/08/01 10:34:23;;;;;;;1999.90;999.90;;;;;;;27.56;46.22;99457.94;10003960;23;20106;-76
2022/08/01 10:38:27;;;;;;;1999.90;999.90;;;;;;;28.14;44.54;99461.63;10001012;23;20019;-75
2022/08/01 10:42:29;;;;;;;1999.90;999.90;;;;;;;28.23;44.07;99448.44;10024043;23;20114;-77
2022/08/01 10:46:30;;;;;;;1999.90;999.90;;;;;;;28.34;42.69;99441.44;10001042;23;20115;-76
2022/08/01 10:50:38;;;;;;;1999.90;999.90;;;;;;;28.54;42.62;99451.44;10026730;23;20053;-76
2022/08/01 10:54:40;;;;;;;1999.90;999.90;;;;;;;28.28;41.91;99440.94;10001066;23;20022;-77
2022/08/01 10:59:03;;;;;;;1999.90;999.90;;;;;;;28.09;42.53;99442.44;10032000;23;20069;-78
2022/08/01 11:03:11;;;;;;;1999.90;999.90;;;;;;;27.87;42.88;99446.72;9984279;23;20023;-77
2022/08/01 11:07:20;;;;;;;1999.90;999.90;;;;;;;27.77;43.98;99445.69;10032842;23;20061;-77
2022/08/01 11:11:26;;;;;;;1999.90;999.90;;;;;;;27.67;44.15;99442.88;10032638;23;20046;-77
2022/08/01 11:15:28;;;;;;;1999.90;999.90;;;;;;;27.64;43.79;99447.56;10029651;23;20019;-77
2022/08/01 11:20:08;;;;;;;1999.90;999.90;;;;;;;27.79;44.24;99448.25;10009555;23;20479;-78
2022/08/01 11:24:09;;;;;;;1999.90;999.90;;;;;;;27.89;43.01;99452.81;10008027;23;20393;-78
2022/08/01 11:28:14;;;;;;;1999.90;999.90;;;;;;;27.63;43.39;99459.22;10033680;23;20042;-77
2022/08/01 11:32:25;;;;;;;1999.90;999.90;;;;;;;27.77;43.95;99453.72;10002460;23;20423;-78
2022/08/01 11:36:27;;;;;;;;;;;;;;;27.43;43.35;99449.13;10005881;23;20022;-77
2022/08/01 11:41:09;;;;;;;1999.90;999.90;;;;;;;27.36;44.76;99449.56;9988033;23;20736;-77
2022/08/01 11:45:11;;;;;;;1999.90;999.90;;;;;;;27.55;44.64;99461.56;9979826;23;20027;-78
2022/08/01 11:49:34;;;;;;;1999.90;999.90;;;;;;;27.73;44.75;99446.06;10027866;23;20030;-78
2022/08/01 11:53:45;;;;;;;1999.90;999.90;;;;;;;27.49;42.52;99446.88;10029327;23;20026;-77
2022/08/01 11:57:48;;;;;;;1999.90;999.90;;;;;;;27.44;44.08;99442.81;10032555;23;20470;-78
2022/08/01 12:01:49;;;;;;;1999.90;999.90;;;;;;;27.50;43.02;99448.56;10003564;23;20018;-77
2022/08/01 12:05:52;;;;;;;1999.90;999.90;;;;;;;27.73;42.55;99436.22;10006878;23;20027;-77
2022/08/01 12:09:58;;;;;;;1999.90;999.90;;;;;;;27.90;42.40;99437.63;10005880;23;20027;-78
2022/08/01 12:14:01;;;;;;;1999.90;999.90;;;;;;;28.16;42.22;99436.50;10027104;23;20030;-78
2022/08/01 12:18:05;;;;;;;1999.90;999.90;;;;;;;28.21;41.92;99441.50;10021706;23;20027;-77
2022/08/01 12:22:14;;;;;;;1999.90;999.90;;;;;;;28.13;42.52;99446.56;10024559;23;20046;-77
2022/08/01 12:26:15;;;;;;;1999.90;999.90;;;;;;;28.25;42.33;99430.50;10003715;23;20034;-78
2022/08/01 12:30:36;;;;;;;1999.90;999.90;;;;;;;28.37;42.11;99439.41;9999785;23;20027;-77
2022/08/01 12:34:38;;;;;;;1999.90;999.90;;;;;;;28.52;41.28;99443.53;10003119;23;20121;-77
2022/08/01 12:38:40;;;;;;;1999.90;999.90;;;;;;;28.54;41.56;99435.41;10046620;23;20126;-77
2022/08/01 12:42:43;;;;;;;1999.90;999.90;;;;;;;28.35;41.54;99435.13;10005440;23;20322;-78
2022/08/01 12:46:45;;;;;;;1999.90;999.90;;;;;;;28.21;42.32;99425.50;10034535;23;20039;-77
2022/08/01 12:50:52;;;;;;;1999.90;999.90;;;;;;;28.09;41.92;99440.63;10024516;23;20428;-78
2022/08/01 12:55:13;;;;;;;1999.90;999.90;;;;;;;27.95;42.53;99430.13;10002856;23;20453;-77
2022/08/01 12:59:22;;;;;;;1999.90;999.90;;;;;;;27.89;42.54;99436.78;10027801;23;20038;-77
2022/08/01 13:03:24;;;;;;;1999.90;999.90;;;;;;;27.68;43.40;99420.56;10024543;23;20090;-77
2022/08/01 13:07:42;;;;;;;;;;;;;;;27.65;43.82;99411.94;10005573;23;20030;-78
2022/08/01 13:11:47;;;;;;;1999.90;999.90;;;;;;;27.71;43.52;99411.47;10005138;23;19922;-77
2022/08/01 13:16:07;;;;;;;1999.90;999.90;;;;;;;27.86;43.35;99423.69;10024688;23;20030;-77
2022/08/01 13:20:33;;;;;;;1999.90;999.90;;;;;;;28.17;42.37;99418.66;10003174;23;20792;-78
2022/08/01 13:24:35;;;;;;;1999.90;999.90;;;;;;;28.20;40.95;99427.31;9978260;23;20023;-77
2022/08/01 13:28:38;;;;;;;;;;;;;;;27.58;41.73;99418.66;10006418;23;20062;-77
2022/08/01 13:32:40;;;;;;;1999.90;999.90;;;;;;;27.36;42.69;99417.56;10001520;23;19949;-78
2022/08/01 13:36:42;;;;;;;1999.90;999.90;;;;;;;27.24;43.58;99412.28;9958845;23;20027;-78
2022/08/01 13:40:58;;;;;;;1999.90;999.90;;;;;;;27.16;43.68;99417.31;9984185;23;20078;-77
2022/08/01 13:45:00;;;;;;;1999.90;999.90;;;;;;;27.15;43.73;99411.13;9983940;23;20404;-78
2022/08/01 13:49:05;;;;;;;1999.90;999.90;;;;;;;26.97;43.30;99407.94;9984468;23;20114;-77
2022/08/01 13:53:17;;;;;;;1999.90;999.90;;;;;;;27.02;44.20;99410.31;9988743;23;20419;-78
2022/08/01 13:57:19;;;;;;;1999.90;999.90;;;;;;;27.11;44.30;99399.00;9987469;23;20031;-78
2022/08/01 14:01:20;;;;;;;;;;;;;;;27.08;44.28;99394.72;9983231;23;20054;-77
2022/08/01 14:05:22;;;;;;;;;;;;;;;26.98;44.09;99393.66;9985327;23;19922;-78
2022/08/01 14:09:23;;;;;;;1999.90;999.90;;;;;;;26.88;44.56;99400.59;9960968;23;20190;-77
2022/08/01 14:13:33;;;;;;;1999.90;999.90;;;;;;;26.75;44.54;99395.31;9961800;23;20023;-78
2022/08/01 14:17:37;;;;;;;1999.90;999.90;;;;;;;26.62;45.01;99409.59;9986496;23;20023;-77
2022/08/01 14:21:38;;;;;;;;;;;;;;;26.60;45.16;99415.03;9986905;23;20757;-77
2022/08/01 14:25:41;;;;;;;1999.90;999.90;;;;;;;26.47;45.46;99408.84;9983543;23;19922;-78
2022/08/01 14:30:06;;;;;;;1999.90;999.90;;;;;;;26.35;45.84;99410.53;9980071;23;20129;-77
2022/08/01 14:34:08;;;;;;;1999.90;999.90;;;;;;;26.28;46.24;99406.56;9998649;23;20579;-77
2022/08/01 14:38:10;;;;;;;1999.90;999.90;;;;;;;26.19;46.87;99415.19;10006055;23;20027;-77
2022/08/01 14:42:22;;;;;;;1999.90;999.90;;;;;;;26.17;46.30;99412.63;10030996;23;20058;-78
2022/08/01 14:46:23;;;;;;;1999.90;999.90;;;;;;;26.04;46.59;99418.91;10039345;23;20743;-77
2022/08/01 14:50:26;;;;;;;1999.90;999.90;;;;;;;25.99;46.59;99421.00;10022470;23;20049;-78
2022/08/01 14:54:28;;;;;;;1999.90;999.90;;;;;;;25.85;46.95;99411.28;10005027;23;20323;-77
2022/08/01 14:58:30;;;;;;;1999.90;999.90;;;;;;;25.73;47.32;99410.31;10024972;23;20031;-77
2022/08/01 15:02:31;;;;;;;1999.90;999.90;;;;;;;25.67;47.92;99410.66;10023054;23;20506;-77
2022/08/01 15:06:33;;;;;;;;;;;;;;;25.55;47.52;99408.84;10044609;23;20022;-77
2022/08/01 15:10:34;;;;;;;1999.90;999.90;;;;;;;25.48;48.46;99419.00;10026768;23;20309;-77
2022/08/01 15:14:48;;;;;;;1999.90;999.90;;;;;;;25.45;48.07;99426.31;10045752;23;20019;-77
2022/08/01 15:18:49;;;;;;;1999.90;999.90;;;;;;;25.43;48.75;99413.13;9960300;23;20042;-78
2022/08/01 15:22:51;;;;;;;1999.90;999.90;;;;;;;25.53;48.25;99416.91;9981372;23;20026;-77
2022/08/01 15:26:53;;;;;;;1999.90;999.90;;;;;;;25.72;48.30;99415.72;9953257;23;20023;-77
2022/08/01 15:30:54;;;;;;;;;;;;;;;25.85;47.84;99416.59;9979891;23;20681;-77
2022/08/01 15:34:56;;;;;;;1999.90;999.90;;;;;;;26.02;47.36;99410.16;10025043;23;19948;-77
2022/08/01 15:38:58;;;;;;;1999.90;999.90;;;;;;;26.15;46.37;99411.88;10005446;23;20019;-77
2022/08/01 15:42:59;;;;;;;1999.90;999.90;;;;;;;26.25;46.80;99416.59;10003463;23;20053;-78
2022/08/01 15:47:03;;;;;;;1999.90;999.90;;;;;;;26.18;46.06;99411.66;10000095;23;20037;-77
2022/08/01 15:51:04;;;;;;;1999.90;999.90;;;;;;;26.09;46.48;99408.78;9979389;23;20054;-77
2022/08/01 15:55:07;;;;;;;1999.90;999.90;;;;;;;26.06;46.86;99399.22;9978152;23;20072;-77
2022/08/01 15:59:08;;;;;;;1999.90;999.90;;;;;;;26.09;46.76;99392.81;10031769;23;20033;-77
2022/08/01 16:03:10;;;;;;;1999.90;999.90;;;;;;;26.07;46.88;99381.44;10025782;23;20120;-77
2022/08/01 16:07:11;;;;;;;;;;;;;;;26.14;46.91;99383.56;10003046;23;20482;-77
2022/08/01 16:11:13;;;;;;;1999.90;999.90;;;;;;;25.97;46.99;99386.50;10025669;23;19921;-77
2022/08/01 16:15:15;;;;;;;1999.90;999.90;;;;;;;25.86;47.19;99387.25;10001942;23;20049;-77
2022/08/01 16:19:16;;;;;;;1999.90;999.90;;;;;;;25.70;47.91;99378.59;10045844;23;20037;-77
2022/08/01 16:23:20;;;;;;;1999.90;999.90;;;;;;;25.65;48.06;99379.81;10030388;23;20081;-78
2022/08/01 16:27:21;;;;;;;1999.90;999.90;;;;;;;25.59;48.17;99376.59;10020784;23;20034;-77
2022/08/01 16:31:27;;;;;;;1999.90;999.90;;;;;;;25.52;48.52;99385.97;10044463;23;20019;-78
2022/08/01 16:35:44;;;;;;;1999.90;999.90;;;;;;;25.49;48.38;99391.44;10005652;23;20090;-77
2022/08/01 16:39:47;;;;;;;1999.90;999.90;;;;;;;25.41;48.57;99383.13;10006597;23;20027;-77
2022/08/01 16:43:49;;;;;;;1999.90;999.90;;;;;;;25.33;49.19;99382.81;10030041;23;20023;-77
2022/08/01 16:47:55;;;;;;;1999.90;999.90;;;;;;;25.25;48.86;99377.97;10027093;23;20026;-77
2022/08/01 16:51:57;;;;;;;1999.90;999.90;;;;;;;25.17;49.41;99374.13;10003555;23;20023;-77
2022/08/01 16:55:58;;;;;;;1999.90;999.90;;;;;;;25.09;49.88;99379.91;10031340;23;20023;-77
2022/08/01 17:00:00;;;;;;;1999.90;999.90;;;;;;;24.97;49.50;99378.88;10033340;23;20038;-77
2022/08/01 17:04:02;;;;;;;;;;;;;;;24.83;49.89;99386.84;10030660;23;20475;-78
2022/08/01 17:08:05;;;;;;;1999.90;999.90;;;;;;;24.67;50.00;99389.63;10030940;23;19963;-77
2022/08/01 17:12:07;;;;;;;1999.90;999.90;;;;;;;24.61;50.72;99381.19;10007918;23;20023;-78
2022/08/01 17:16:10;;;;;;;1999.90;999.90;;;;;;;24.56;51.12;99381.44;10027286;23;20038;-77
2022/08/01 17:20:11;;;;;;;1999.90;999.90;;;;;;;24.47;51.35;99379.38;10003601;23;20570;-77
2022/08/01 17:24:15;;;;;;;1999.90;999.90;;;;;;;24.44;51.61;99384.03;10026896;23;20029;-77
2022/08/01 17:28:17;;;;;;;1999.90;999.90;;;;;;;24.40;52.54;99388.66;10001057;23;20082;-77
2022/08/01 17:32:18;;;;;;;1999.90;999.90;;;;;;;24.33;51.41;99397.94;10020165;23;20030;-77
2022/08/01 17:36:20;;;;;;;1999.90;999.90;;;;;;;24.29;52.29;99394.63;10024394;23;20022;-77
2022/08/01 17:40:21;;;;;;;1999.90;999.90;;;;;;;24.27;52.02;99395.63;10001697;23;20030;-77
2022/08/01 17:44:40;;;;;;;1999.90;999.90;;;;;;;24.21;52.17;99396.00;10032046;23;20111;-77
2022/08/01 17:48:49;;;;;;;1999.90;999.90;;;;;;;24.20;52.50;99397.78;9999763;23;20058;-77
2022/08/01 17:52:51;;;;;;;1999.90;999.90;;;;;;;24.16;52.76;99409.53;10030310;23;20097;-76
2022/08/01 17:56:52;;;;;;;1999.90;999.90;;;;;;;24.17;53.17;99405.09;10044517;23;20022;-77
2022/08/01 18:00:54;;;;;;;1999.90;999.90;;;;;;;24.15;52.90;99407.84;10014352;23;20026;-77
2022/08/01 18:04:55;;;;;;;1999.90;999.90;;;;;;;24.10;52.96;99400.16;10042596;23;20038;-78
2022/08/01 18:08:57;;;;;;;1999.90;999.90;;;;;;;24.09;53.79;99403.75;10005916;23;20034;-77